sensor_id;sensor_type;location;lat;lon;timestamp;temperature;humidity
26053;DHT22;13826;51.186;4.450;2022-08-11T00:01:54;22.80;1.00
26053;DHT22;13826;51.186;4.450;2022-08-11T00:04:24;22.90;1.00
26053;DHT22;13826;51.186;4.450;2022-08-11T00:06:51;22.80;1.00
26053;DHT22;13826;51.186;4.450;2022-08-11T00:09:32;22.90;1.00
26053;DHT22;13826;51.186;4.450;2022-08-11T00:11:59;22.70;1.00
26053;DHT22;13826;51.186;4.450;2022-08-11T00:14:28;22.60;1.00
26053;DHT22;13826;51.186;4.450;2022-08-11T00:19:28;22.50;1.00
26053;DHT22;13826;51.186;4.450;2022-08-11T00:21:55;22.50;1.00
26053;DHT22;13826;51.186;4.450;2022-08-11T00:24:21;22.50;1.00
26053;DHT22;13826;51.186;4.450;2022-08-11T00:26:53;22.50;1.00
26053;DHT22;13826;51.186;4.450;2022-08-11T00:29:20;22.50;1.00
26053;DHT22;13826;51.186;4.450;2022-08-11T00:31:51;22.40;1.00
26053;DHT22;13826;51.186;4.450;2022-08-11T00:34:37;22.30;1.00
26053;DHT22;13826;51.186;4.450;2022-08-11T00:37:09;22.40;1.00
26053;DHT22;13826;51.186;4.450;2022-08-11T00:39:47;22.30;1.00
26053;DHT22;13826;51.186;4.450;2022-08-11T00:42:26;22.30;1.00
26053;DHT22;13826;51.186;4.450;2022-08-11T00:56:22;22.20;1.00
26053;DHT22;13826;51.186;4.450;2022-08-11T00:59:25;22.10;1.00
26053;DHT22;13826;51.186;4.450;2022-08-11T01:59:28;21.60;1.00
26053;DHT22;13826;51.186;4.450;2022-08-11T02:05:04;21.60;1.00
26053;DHT22;13826;51.186;4.450;2022-08-11T02:07:49;21.50;1.00
26053;DHT22;13826;51.186;4.450;2022-08-11T02:10:44;21.50;1.00
26053;DHT22;13826;51.186;4.450;2022-08-11T02:13:48;21.40;1.00
26053;DHT22;13826;51.186;4.450;2022-08-11T02:18:55;21.40;1.00
26053;DHT22;13826;51.186;4.450;2022-08-11T02:21:59;21.40;1.00
26053;DHT22;13826;51.186;4.450;2022-08-11T02:24:52;21.40;1.00
26053;DHT22;13826;51.186;4.450;2022-08-11T02:27:23;21.30;1.00
26053;DHT22;13826;51.186;4.450;2022-08-11T02:30:07;21.20;1.00
26053;DHT22;13826;51.186;4.450;2022-08-11T02:33:19;21.10;1.00
26053;DHT22;13826;51.186;4.450;2022-08-11T02:39:00;21.00;1.00
26053;DHT22;13826;51.186;4.450;2022-08-11T02:49:55;20.70;1.00
26053;DHT22;13826;51.186;4.450;2022-08-11T02:52:52;20.60;1.00
26053;DHT22;13826;51.186;4.450;2022-08-11T02:55:29;20.60;1.00
26053;DHT22;13826;51.186;4.450;2022-08-11T03:03:57;20.70;1.00
26053;DHT22;13826;51.186;4.450;2022-08-11T03:06:28;20.60;1.00
26053;DHT22;13826;51.186;4.450;2022-08-11T03:17:37;20.70;1.00
26053;DHT22;13826;51.186;4.450;2022-08-11T03:23:35;20.60;1.00
26053;DHT22;13826;51.186;4.450;2022-08-11T03:26:09;20.50;1.00
26053;DHT22;13826;51.186;4.450;2022-08-11T03:34:28;20.40;1.00
26053;DHT22;13826;51.186;4.450;2022-08-11T03:40:15;20.20;1.00
26053;DHT22;13826;51.186;4.450;2022-08-11T03:46:09;20.00;1.00
26053;DHT22;13826;51.186;4.450;2022-08-11T03:51:38;20.10;1.00
26053;DHT22;13826;51.186;4.450;2022-08-11T03:54:19;20.20;1.00
26053;DHT22;13826;51.186;4.450;2022-08-11T04:00:04;20.10;1.00
26053;DHT22;13826;51.186;4.450;2022-08-11T04:14:41;20.00;1.00
26053;DHT22;13826;51.186;4.450;2022-08-11T04:28:39;19.90;13.20
26053;DHT22;13826;51.186;4.450;2022-08-11T04:31:34;19.80;14.20
26053;DHT22;13826;51.186;4.450;2022-08-11T04:34:34;19.80;33.20
26053;DHT22;13826;51.186;4.450;2022-08-11T05:00:29;19.90;11.40
26053;DHT22;13826;51.186;4.450;2022-08-11T05:03:34;20.00;3.50
26053;DHT22;13826;51.186;4.450;2022-08-11T05:09:21;20.20;1.00
26053;DHT22;13826;51.186;4.450;2022-08-11T05:14:51;20.30;1.00
26053;DHT22;13826;51.186;4.450;2022-08-11T05:18:01;20.20;1.00
26053;DHT22;13826;51.186;4.450;2022-08-11T05:20:54;20.30;1.00
26053;DHT22;13826;51.186;4.450;2022-08-11T05:24:03;20.30;1.00
26053;DHT22;13826;51.186;4.450;2022-08-11T05:26:47;20.50;1.00
26053;DHT22;13826;51.186;4.450;2022-08-11T05:32:23;21.90;1.00
26053;DHT22;13826;51.186;4.450;2022-08-11T05:35:09;23.30;1.00
26053;DHT22;13826;51.186;4.450;2022-08-11T05:37:43;24.40;1.00
26053;DHT22;13826;51.186;4.450;2022-08-11T05:40:29;25.40;1.00
26053;DHT22;13826;51.186;4.450;2022-08-11T05:43:15;27.00;1.00
26053;DHT22;13826;51.186;4.450;2022-08-11T05:46:04;27.30;1.00
26053;DHT22;13826;51.186;4.450;2022-08-11T05:48:49;27.80;1.00
26053;DHT22;13826;51.186;4.450;2022-08-11T05:51:35;28.80;1.00
26053;DHT22;13826;51.186;4.450;2022-08-11T05:54:21;28.60;1.00
26053;DHT22;13826;51.186;4.450;2022-08-11T05:57:06;28.30;1.00
26053;DHT22;13826;51.186;4.450;2022-08-11T05:59:32;29.10;1.00
26053;DHT22;13826;51.186;4.450;2022-08-11T06:02:06;29.40;1.00
26053;DHT22;13826;51.186;4.450;2022-08-11T06:04:33;29.40;1.00
26053;DHT22;13826;51.186;4.450;2022-08-11T06:07:07;29.50;1.00
26053;DHT22;13826;51.186;4.450;2022-08-11T06:12:20;29.50;1.00
26053;DHT22;13826;51.186;4.450;2022-08-11T06:15:10;30.50;1.00
26053;DHT22;13826;51.186;4.450;2022-08-11T06:17:43;30.60;1.00
26053;DHT22;13826;51.186;4.450;2022-08-11T06:20:11;32.10;1.00
26053;DHT22;13826;51.186;4.450;2022-08-11T06:22:55;33.10;1.00
26053;DHT22;13826;51.186;4.450;2022-08-11T06:25:22;32.30;1.00
26053;DHT22;13826;51.186;4.450;2022-08-11T06:27:55;31.20;1.00
26053;DHT22;13826;51.186;4.450;2022-08-11T06:30:41;32.20;1.00
26053;DHT22;13826;51.186;4.450;2022-08-11T06:33:20;32.40;1.00
26053;DHT22;13826;51.186;4.450;2022-08-11T06:44:31;31.40;1.00
26053;DHT22;13826;51.186;4.450;2022-08-11T06:47:06;32.30;1.00
26053;DHT22;13826;51.186;4.450;2022-08-11T06:49:43;32.00;1.00
26053;DHT22;13826;51.186;4.450;2022-08-11T06:52:34;31.80;1.00
26053;DHT22;13826;51.186;4.450;2022-08-11T06:55:06;32.00;1.00
26053;DHT22;13826;51.186;4.450;2022-08-11T06:57:35;33.60;1.00
26053;DHT22;13826;51.186;4.450;2022-08-11T07:00:20;34.80;1.00
26053;DHT22;13826;51.186;4.450;2022-08-11T07:14:22;36.60;1.00
26053;DHT22;13826;51.186;4.450;2022-08-11T07:17:21;37.20;1.00
26053;DHT22;13826;51.186;4.450;2022-08-11T07:19:52;36.80;1.00
26053;DHT22;13826;51.186;4.450;2022-08-11T07:22:39;36.50;1.00
26053;DHT22;13826;51.186;4.450;2022-08-11T07:25:24;36.80;1.00
26053;DHT22;13826;51.186;4.450;2022-08-11T07:28:17;36.80;1.00
26053;DHT22;13826;51.186;4.450;2022-08-11T07:31:08;37.00;1.00
26053;DHT22;13826;51.186;4.450;2022-08-11T07:33:46;37.20;1.00
26053;DHT22;13826;51.186;4.450;2022-08-11T07:36:14;38.20;1.00
26053;DHT22;13826;51.186;4.450;2022-08-11T07:38:43;38.40;1.00
26053;DHT22;13826;51.186;4.450;2022-08-11T07:41:14;37.30;1.00
26053;DHT22;13826;51.186;4.450;2022-08-11T07:43:41;38.30;1.00
26053;DHT22;13826;51.186;4.450;2022-08-11T07:46:08;37.50;1.00
26053;DHT22;13826;51.186;4.450;2022-08-11T07:48:54;37.80;1.00
26053;DHT22;13826;51.186;4.450;2022-08-11T07:51:41;38.10;1.00
26053;DHT22;13826;51.186;4.450;2022-08-11T07:54:25;37.80;1.00
26053;DHT22;13826;51.186;4.450;2022-08-11T07:56:52;39.70;1.00
26053;DHT22;13826;51.186;4.450;2022-08-11T07:59:18;38.60;1.00
26053;DHT22;13826;51.186;4.450;2022-08-11T08:02:03;39.40;1.00
26053;DHT22;13826;51.186;4.450;2022-08-11T08:04:48;38.00;1.00
26053;DHT22;13826;51.186;4.450;2022-08-11T08:07:33;38.30;1.00
26053;DHT22;13826;51.186;4.450;2022-08-11T08:10:18;38.50;1.00
26053;DHT22;13826;51.186;4.450;2022-08-11T08:13:04;38.50;1.00
26053;DHT22;13826;51.186;4.450;2022-08-11T08:15:50;39.00;1.00
26053;DHT22;13826;51.186;4.450;2022-08-11T08:18:35;39.20;1.00
26053;DHT22;13826;51.186;4.450;2022-08-11T08:21:03;39.50;1.00
26053;DHT22;13826;51.186;4.450;2022-08-11T08:23:44;38.40;1.00
26053;DHT22;13826;51.186;4.450;2022-08-11T08:26:12;38.90;1.00
26053;DHT22;13826;51.186;4.450;2022-08-11T08:29:02;38.90;1.00
26053;DHT22;13826;51.186;4.450;2022-08-11T08:31:48;38.90;1.00
26053;DHT22;13826;51.186;4.450;2022-08-11T08:34:15;39.80;1.00
26053;DHT22;13826;51.186;4.450;2022-08-11T08:36:43;40.30;1.00
26053;DHT22;13826;51.186;4.450;2022-08-11T08:39:11;41.40;1.00
26053;DHT22;13826;51.186;4.450;2022-08-11T08:41:38;41.40;1.00
26053;DHT22;13826;51.186;4.450;2022-08-11T08:44:10;40.80;1.00
26053;DHT22;13826;51.186;4.450;2022-08-11T08:46:39;41.60;1.00
26053;DHT22;13826;51.186;4.450;2022-08-11T08:49:07;42.20;1.00
26053;DHT22;13826;51.186;4.450;2022-08-11T08:51:37;41.20;1.00
26053;DHT22;13826;51.186;4.450;2022-08-11T08:54:09;42.70;1.00
26053;DHT22;13826;51.186;4.450;2022-08-11T08:56:39;43.20;1.00
26053;DHT22;13826;51.186;4.450;2022-08-11T08:59:06;42.50;1.00
26053;DHT22;13826;51.186;4.450;2022-08-11T09:01:42;42.70;1.00
26053;DHT22;13826;51.186;4.450;2022-08-11T09:04:08;41.30;1.00
26053;DHT22;13826;51.186;4.450;2022-08-11T09:06:39;42.30;1.00
26053;DHT22;13826;51.186;4.450;2022-08-11T09:09:06;43.40;1.00
26053;DHT22;13826;51.186;4.450;2022-08-11T09:11:37;44.10;1.00
26053;DHT22;13826;51.186;4.450;2022-08-11T09:14:48;43.90;1.00
26053;DHT22;13826;51.186;4.450;2022-08-11T09:17:48;43.20;1.00
26053;DHT22;13826;51.186;4.450;2022-08-11T09:20:24;43.10;99.90
26053;DHT22;13826;51.186;4.450;2022-08-11T09:22:55;42.50;1.00
26053;DHT22;13826;51.186;4.450;2022-08-11T09:25:40;43.80;1.00
26053;DHT22;13826;51.186;4.450;2022-08-11T09:28:27;43.60;1.00
26053;DHT22;13826;51.186;4.450;2022-08-11T09:30:54;43.90;1.00
26053;DHT22;13826;51.186;4.450;2022-08-11T09:33:24;44.20;1.00
26053;DHT22;13826;51.186;4.450;2022-08-11T09:35:51;44.30;99.90
26053;DHT22;13826;51.186;4.450;2022-08-11T09:38:18;44.60;1.00
26053;DHT22;13826;51.186;4.450;2022-08-11T09:41:06;44.20;99.90
26053;DHT22;13826;51.186;4.450;2022-08-11T09:43:37;44.30;99.90
26053;DHT22;13826;51.186;4.450;2022-08-11T09:46:26;43.40;1.00
26053;DHT22;13826;51.186;4.450;2022-08-11T09:48:54;44.40;99.90
26053;DHT22;13826;51.186;4.450;2022-08-11T09:51:23;44.70;99.90
26053;DHT22;13826;51.186;4.450;2022-08-11T09:53:50;43.60;99.90
26053;DHT22;13826;51.186;4.450;2022-08-11T09:56:19;43.60;99.90
26053;DHT22;13826;51.186;4.450;2022-08-11T09:59:04;44.00;99.90
26053;DHT22;13826;51.186;4.450;2022-08-11T10:01:38;44.30;99.90
26053;DHT22;13826;51.186;4.450;2022-08-11T10:04:15;43.40;99.90
26053;DHT22;13826;51.186;4.450;2022-08-11T10:06:48;44.10;99.90
26053;DHT22;13826;51.186;4.450;2022-08-11T10:09:32;42.50;99.90
26053;DHT22;13826;51.186;4.450;2022-08-11T10:11:59;40.90;1.00
26053;DHT22;13826;51.186;4.450;2022-08-11T10:14:29;40.60;1.00
26053;DHT22;13826;51.186;4.450;2022-08-11T10:17:16;40.50;1.00
26053;DHT22;13826;51.186;4.450;2022-08-11T10:19:46;41.90;1.00
26053;DHT22;13826;51.186;4.450;2022-08-11T10:22:13;41.20;99.90
26053;DHT22;13826;51.186;4.450;2022-08-11T10:25:00;42.10;99.90
26053;DHT22;13826;51.186;4.450;2022-08-11T10:27:45;41.50;1.00
26053;DHT22;13826;51.186;4.450;2022-08-11T10:30:13;41.80;99.90
26053;DHT22;13826;51.186;4.450;2022-08-11T10:32:57;41.20;1.00
26053;DHT22;13826;51.186;4.450;2022-08-11T10:35:42;40.80;99.90
26053;DHT22;13826;51.186;4.450;2022-08-11T10:38:12;40.10;1.00
26053;DHT22;13826;51.186;4.450;2022-08-11T10:40:39;39.70;1.00
26053;DHT22;13826;51.186;4.450;2022-08-11T10:43:07;39.10;1.00
26053;DHT22;13826;51.186;4.450;2022-08-11T10:45:39;39.80;1.00
26053;DHT22;13826;51.186;4.450;2022-08-11T10:48:28;41.00;1.00
26053;DHT22;13826;51.186;4.450;2022-08-11T10:50:55;40.20;1.00
26053;DHT22;13826;51.186;4.450;2022-08-11T10:53:45;41.70;1.00
26053;DHT22;13826;51.186;4.450;2022-08-11T10:56:34;40.90;1.00
26053;DHT22;13826;51.186;4.450;2022-08-11T10:59:19;41.00;1.00
26053;DHT22;13826;51.186;4.450;2022-08-11T11:01:46;39.80;1.00
26053;DHT22;13826;51.186;4.450;2022-08-11T11:04:23;39.10;99.90
26053;DHT22;13826;51.186;4.450;2022-08-11T11:07:08;40.10;1.00
26053;DHT22;13826;51.186;4.450;2022-08-11T11:12:18;39.30;99.90
26053;DHT22;13826;51.186;4.450;2022-08-11T11:15:05;39.40;1.00
26053;DHT22;13826;51.186;4.450;2022-08-11T11:17:55;38.40;1.00
26053;DHT22;13826;51.186;4.450;2022-08-11T11:20:49;38.60;1.00
26053;DHT22;13826;51.186;4.450;2022-08-11T11:29:30;38.40;1.00
26053;DHT22;13826;51.186;4.450;2022-08-11T11:37:51;37.60;1.00
26053;DHT22;13826;51.186;4.450;2022-08-11T11:40:19;38.30;1.00
26053;DHT22;13826;51.186;4.450;2022-08-11T11:42:49;38.80;1.00
26053;DHT22;13826;51.186;4.450;2022-08-11T11:45:18;38.10;1.00
26053;DHT22;13826;51.186;4.450;2022-08-11T11:47:45;38.60;1.00
26053;DHT22;13826;51.186;4.450;2022-08-11T11:50:11;39.10;1.00
26053;DHT22;13826;51.186;4.450;2022-08-11T11:52:38;39.70;99.90
26053;DHT22;13826;51.186;4.450;2022-08-11T11:55:06;39.20;99.90
26053;DHT22;13826;51.186;4.450;2022-08-11T11:57:35;39.60;99.90
26053;DHT22;13826;51.186;4.450;2022-08-11T12:00:20;38.90;99.90
26053;DHT22;13826;51.186;4.450;2022-08-11T12:03:08;37.80;1.00
26053;DHT22;13826;51.186;4.450;2022-08-11T12:05:35;37.90;1.00
26053;DHT22;13826;51.186;4.450;2022-08-11T12:08:03;37.90;1.00
26053;DHT22;13826;51.186;4.450;2022-08-11T12:11:09;38.00;1.00
26053;DHT22;13826;51.186;4.450;2022-08-11T12:13:55;37.20;1.00
26053;DHT22;13826;51.186;4.450;2022-08-11T12:16:22;36.10;1.00
26053;DHT22;13826;51.186;4.450;2022-08-11T12:18:50;35.00;1.00
26053;DHT22;13826;51.186;4.450;2022-08-11T12:21:17;34.50;1.00
26053;DHT22;13826;51.186;4.450;2022-08-11T12:23:49;34.70;1.00
26053;DHT22;13826;51.186;4.450;2022-08-11T12:26:34;34.50;1.00
26053;DHT22;13826;51.186;4.450;2022-08-11T12:29:24;34.00;1.00
26053;DHT22;13826;51.186;4.450;2022-08-11T12:31:55;33.90;1.00
26053;DHT22;13826;51.186;4.450;2022-08-11T12:34:25;34.10;1.00
26053;DHT22;13826;51.186;4.450;2022-08-11T12:36:59;34.00;1.00
26053;DHT22;13826;51.186;4.450;2022-08-11T12:39:34;34.10;1.00
26053;DHT22;13826;51.186;4.450;2022-08-11T12:42:20;33.90;1.00
26053;DHT22;13826;51.186;4.450;2022-08-11T12:45:12;33.90;1.00
26053;DHT22;13826;51.186;4.450;2022-08-11T12:48:14;34.10;1.00
26053;DHT22;13826;51.186;4.450;2022-08-11T12:51:06;34.40;1.00
26053;DHT22;13826;51.186;4.450;2022-08-11T12:56:19;34.50;1.00
26053;DHT22;13826;51.186;4.450;2022-08-11T12:59:04;34.40;1.00
26053;DHT22;13826;51.186;4.450;2022-08-11T13:01:49;34.40;1.00
26053;DHT22;13826;51.186;4.450;2022-08-11T13:04:34;34.00;1.00
26053;DHT22;13826;51.186;4.450;2022-08-11T13:07:18;33.80;1.00
26053;DHT22;13826;51.186;4.450;2022-08-11T13:09:45;33.90;1.00
26053;DHT22;13826;51.186;4.450;2022-08-11T13:12:11;34.10;1.00
26053;DHT22;13826;51.186;4.450;2022-08-11T13:14:57;33.90;1.00
26053;DHT22;13826;51.186;4.450;2022-08-11T13:17:24;34.10;1.00
26053;DHT22;13826;51.186;4.450;2022-08-11T13:19:51;34.20;1.00
26053;DHT22;13826;51.186;4.450;2022-08-11T13:22:19;34.10;1.00
26053;DHT22;13826;51.186;4.450;2022-08-11T13:24:47;34.10;1.00
26053;DHT22;13826;51.186;4.450;2022-08-11T13:27:17;34.10;1.00
26053;DHT22;13826;51.186;4.450;2022-08-11T13:29:44;33.80;1.00
26053;DHT22;13826;51.186;4.450;2022-08-11T13:32:12;33.80;1.00
26053;DHT22;13826;51.186;4.450;2022-08-11T13:34:40;33.80;1.00
26053;DHT22;13826;51.186;4.450;2022-08-11T13:37:09;33.80;1.00
26053;DHT22;13826;51.186;4.450;2022-08-11T13:39:36;33.50;1.00
26053;DHT22;13826;51.186;4.450;2022-08-11T13:42:05;33.80;1.00
26053;DHT22;13826;51.186;4.450;2022-08-11T13:44:34;33.80;1.00
26053;DHT22;13826;51.186;4.450;2022-08-11T13:47:02;33.70;1.00
26053;DHT22;13826;51.186;4.450;2022-08-11T13:49:34;33.60;1.00
26053;DHT22;13826;51.186;4.450;2022-08-11T13:52:02;33.40;1.00
26053;DHT22;13826;51.186;4.450;2022-08-11T13:54:30;33.20;1.00
26053;DHT22;13826;51.186;4.450;2022-08-11T13:57:01;33.30;1.00
26053;DHT22;13826;51.186;4.450;2022-08-11T13:59:27;33.30;1.00
26053;DHT22;13826;51.186;4.450;2022-08-11T14:01:56;33.30;1.00
26053;DHT22;13826;51.186;4.450;2022-08-11T14:04:37;33.40;1.00
26053;DHT22;13826;51.186;4.450;2022-08-11T14:07:07;33.20;1.00
26053;DHT22;13826;51.186;4.450;2022-08-11T14:09:42;33.10;1.00
26053;DHT22;13826;51.186;4.450;2022-08-11T14:12:14;33.10;1.00
26053;DHT22;13826;51.186;4.450;2022-08-11T14:18:02;33.40;1.00
26053;DHT22;13826;51.186;4.450;2022-08-11T14:20:31;33.30;1.00
26053;DHT22;13826;51.186;4.450;2022-08-11T14:23:19;33.30;1.00
26053;DHT22;13826;51.186;4.450;2022-08-11T14:25:48;33.30;1.00
26053;DHT22;13826;51.186;4.450;2022-08-11T14:28:33;33.20;1.00
26053;DHT22;13826;51.186;4.450;2022-08-11T14:31:01;33.20;1.00
26053;DHT22;13826;51.186;4.450;2022-08-11T14:33:28;33.20;1.00
26053;DHT22;13826;51.186;4.450;2022-08-11T14:35:55;33.50;1.00
26053;DHT22;13826;51.186;4.450;2022-08-11T14:38:21;33.50;1.00
26053;DHT22;13826;51.186;4.450;2022-08-11T14:40:48;33.40;1.00
26053;DHT22;13826;51.186;4.450;2022-08-11T14:43:32;33.50;1.00
26053;DHT22;13826;51.186;4.450;2022-08-11T14:46:17;33.30;1.00
26053;DHT22;13826;51.186;4.450;2022-08-11T14:49:01;33.10;1.00
26053;DHT22;13826;51.186;4.450;2022-08-11T14:51:27;33.20;1.00
26053;DHT22;13826;51.186;4.450;2022-08-11T14:53:53;33.10;1.00
26053;DHT22;13826;51.186;4.450;2022-08-11T14:56:39;32.90;1.00
26053;DHT22;13826;51.186;4.450;2022-08-11T14:59:06;33.10;1.00
26053;DHT22;13826;51.186;4.450;2022-08-11T15:01:32;33.10;1.00
26053;DHT22;13826;51.186;4.450;2022-08-11T15:04:19;33.10;1.00
26053;DHT22;13826;51.186;4.450;2022-08-11T15:06:46;33.00;1.00
26053;DHT22;13826;51.186;4.450;2022-08-11T15:09:12;33.10;1.00
26053;DHT22;13826;51.186;4.450;2022-08-11T15:11:38;33.10;1.00
26053;DHT22;13826;51.186;4.450;2022-08-11T15:14:22;33.00;1.00
26053;DHT22;13826;51.186;4.450;2022-08-11T15:17:08;32.80;1.00
26053;DHT22;13826;51.186;4.450;2022-08-11T15:19:36;32.80;1.00
26053;DHT22;13826;51.186;4.450;2022-08-11T15:22:23;32.80;1.00
26053;DHT22;13826;51.186;4.450;2022-08-11T15:25:07;32.70;1.00
26053;DHT22;13826;51.186;4.450;2022-08-11T15:27:34;32.60;1.00
26053;DHT22;13826;51.186;4.450;2022-08-11T15:30:20;32.60;1.00
26053;DHT22;13826;51.186;4.450;2022-08-11T15:33:07;32.60;1.00
26053;DHT22;13826;51.186;4.450;2022-08-11T15:35:53;32.50;1.00
26053;DHT22;13826;51.186;4.450;2022-08-11T15:39:17;32.60;1.00
26053;DHT22;13826;51.186;4.450;2022-08-11T15:41:55;32.50;1.00
26053;DHT22;13826;51.186;4.450;2022-08-11T15:44:42;32.50;1.00
26053;DHT22;13826;51.186;4.450;2022-08-11T15:47:47;32.50;1.00
26053;DHT22;13826;51.186;4.450;2022-08-11T15:50:17;32.70;1.00
26053;DHT22;13826;51.186;4.450;2022-08-11T15:52:51;32.60;1.00
26053;DHT22;13826;51.186;4.450;2022-08-11T15:55:18;32.40;1.00
26053;DHT22;13826;51.186;4.450;2022-08-11T15:57:48;32.40;1.00
26053;DHT22;13826;51.186;4.450;2022-08-11T16:00:34;32.40;1.00
26053;DHT22;13826;51.186;4.450;2022-08-11T16:03:19;32.30;1.00
26053;DHT22;13826;51.186;4.450;2022-08-11T16:06:03;32.40;1.00
26053;DHT22;13826;51.186;4.450;2022-08-11T16:08:31;32.70;1.00
26053;DHT22;13826;51.186;4.450;2022-08-11T16:10:58;32.80;1.00
26053;DHT22;13826;51.186;4.450;2022-08-11T16:13:24;32.80;1.00
26053;DHT22;13826;51.186;4.450;2022-08-11T16:15:53;32.70;1.00
26053;DHT22;13826;51.186;4.450;2022-08-11T16:18:49;32.50;1.00
26053;DHT22;13826;51.186;4.450;2022-08-11T16:21:20;32.60;1.00
26053;DHT22;13826;51.186;4.450;2022-08-11T16:23:49;32.20;1.00
26053;DHT22;13826;51.186;4.450;2022-08-11T16:26:18;32.20;1.00
26053;DHT22;13826;51.186;4.450;2022-08-11T16:28:49;32.30;1.00
26053;DHT22;13826;51.186;4.450;2022-08-11T16:31:16;32.20;1.00
26053;DHT22;13826;51.186;4.450;2022-08-11T16:33:44;32.20;1.00
26053;DHT22;13826;51.186;4.450;2022-08-11T16:36:11;32.20;1.00
26053;DHT22;13826;51.186;4.450;2022-08-11T16:38:58;32.30;1.00
26053;DHT22;13826;51.186;4.450;2022-08-11T16:41:27;32.30;1.00
26053;DHT22;13826;51.186;4.450;2022-08-11T16:44:14;32.20;1.00
26053;DHT22;13826;51.186;4.450;2022-08-11T16:47:00;32.30;1.00
26053;DHT22;13826;51.186;4.450;2022-08-11T16:49:32;32.40;1.00
26053;DHT22;13826;51.186;4.450;2022-08-11T16:52:00;32.20;1.00
26053;DHT22;13826;51.186;4.450;2022-08-11T16:54:33;32.30;1.00
26053;DHT22;13826;51.186;4.450;2022-08-11T16:57:02;32.20;1.00
26053;DHT22;13826;51.186;4.450;2022-08-11T16:59:50;32.20;1.00
26053;DHT22;13826;51.186;4.450;2022-08-11T17:02:17;32.30;1.00
26053;DHT22;13826;51.186;4.450;2022-08-11T17:05:12;32.30;1.00
26053;DHT22;13826;51.186;4.450;2022-08-11T17:08:01;32.30;1.00
26053;DHT22;13826;51.186;4.450;2022-08-11T17:10:58;32.00;1.00
26053;DHT22;13826;51.186;4.450;2022-08-11T17:13:51;31.80;1.00
26053;DHT22;13826;51.186;4.450;2022-08-11T17:16:23;31.60;1.00
26053;DHT22;13826;51.186;4.450;2022-08-11T17:18:56;31.60;1.00
26053;DHT22;13826;51.186;4.450;2022-08-11T17:21:32;31.60;1.00
26053;DHT22;13826;51.186;4.450;2022-08-11T17:24:09;31.60;1.00
26053;DHT22;13826;51.186;4.450;2022-08-11T17:26:47;31.60;1.00
26053;DHT22;13826;51.186;4.450;2022-08-11T17:31:53;31.40;1.00
26053;DHT22;13826;51.186;4.450;2022-08-11T17:34:40;31.20;1.00
26053;DHT22;13826;51.186;4.450;2022-08-11T17:37:28;31.10;1.00
26053;DHT22;13826;51.186;4.450;2022-08-11T17:39:56;31.30;1.00
26053;DHT22;13826;51.186;4.450;2022-08-11T17:42:23;31.30;1.00
26053;DHT22;13826;51.186;4.450;2022-08-11T17:45:10;31.40;1.00
26053;DHT22;13826;51.186;4.450;2022-08-11T17:47:57;31.40;1.00
26053;DHT22;13826;51.186;4.450;2022-08-11T17:50:42;31.20;1.00
26053;DHT22;13826;51.186;4.450;2022-08-11T17:53:10;31.30;1.00
26053;DHT22;13826;51.186;4.450;2022-08-11T17:55:57;31.30;1.00
26053;DHT22;13826;51.186;4.450;2022-08-11T17:58:41;31.20;1.00
26053;DHT22;13826;51.186;4.450;2022-08-11T18:01:27;31.20;1.00
26053;DHT22;13826;51.186;4.450;2022-08-11T18:04:04;31.10;1.00
26053;DHT22;13826;51.186;4.450;2022-08-11T18:06:31;31.00;1.00
26053;DHT22;13826;51.186;4.450;2022-08-11T18:08:58;30.80;1.00
26053;DHT22;13826;51.186;4.450;2022-08-11T18:11:45;30.80;1.00
26053;DHT22;13826;51.186;4.450;2022-08-11T18:14:32;30.70;1.00
26053;DHT22;13826;51.186;4.450;2022-08-11T18:17:17;30.70;1.00
26053;DHT22;13826;51.186;4.450;2022-08-11T18:20:02;30.60;1.00
26053;DHT22;13826;51.186;4.450;2022-08-11T18:22:47;30.60;1.00
26053;DHT22;13826;51.186;4.450;2022-08-11T18:25:34;30.60;1.00
26053;DHT22;13826;51.186;4.450;2022-08-11T18:28:26;30.60;1.00
26053;DHT22;13826;51.186;4.450;2022-08-11T18:31:14;30.50;1.00
26053;DHT22;13826;51.186;4.450;2022-08-11T18:34:04;30.40;1.00
26053;DHT22;13826;51.186;4.450;2022-08-11T18:39:51;30.30;1.00
26053;DHT22;13826;51.186;4.450;2022-08-11T18:42:39;30.30;1.00
26053;DHT22;13826;51.186;4.450;2022-08-11T18:45:24;30.10;1.00
26053;DHT22;13826;51.186;4.450;2022-08-11T18:48:12;30.00;1.00
26053;DHT22;13826;51.186;4.450;2022-08-11T18:51:00;30.00;1.00
26053;DHT22;13826;51.186;4.450;2022-08-11T18:53:49;30.00;1.00
26053;DHT22;13826;51.186;4.450;2022-08-11T18:56:35;29.90;1.00
26053;DHT22;13826;51.186;4.450;2022-08-11T18:59:23;30.00;1.00
26053;DHT22;13826;51.186;4.450;2022-08-11T19:02:10;29.90;1.00
26053;DHT22;13826;51.186;4.450;2022-08-11T19:04:56;29.90;1.00
26053;DHT22;13826;51.186;4.450;2022-08-11T19:07:44;29.90;1.00
26053;DHT22;13826;51.186;4.450;2022-08-11T19:10:29;30.00;1.00
26053;DHT22;13826;51.186;4.450;2022-08-11T19:13:14;29.80;1.00
26053;DHT22;13826;51.186;4.450;2022-08-11T19:16:00;29.60;1.00
26053;DHT22;13826;51.186;4.450;2022-08-11T19:18:47;29.70;1.00
26053;DHT22;13826;51.186;4.450;2022-08-11T19:21:33;29.60;1.00
26053;DHT22;13826;51.186;4.450;2022-08-11T19:24:21;29.50;1.00
26053;DHT22;13826;51.186;4.450;2022-08-11T19:27:06;29.40;1.00
26053;DHT22;13826;51.186;4.450;2022-08-11T19:29:52;29.40;1.00
26053;DHT22;13826;51.186;4.450;2022-08-11T19:32:38;29.20;1.00
26053;DHT22;13826;51.186;4.450;2022-08-11T19:35:24;29.10;1.00
26053;DHT22;13826;51.186;4.450;2022-08-11T19:38:09;29.10;1.00
26053;DHT22;13826;51.186;4.450;2022-08-11T19:40:54;29.00;1.00
26053;DHT22;13826;51.186;4.450;2022-08-11T19:43:41;28.80;1.00
26053;DHT22;13826;51.186;4.450;2022-08-11T19:46:27;28.80;1.00
26053;DHT22;13826;51.186;4.450;2022-08-11T19:49:13;28.70;1.00
26053;DHT22;13826;51.186;4.450;2022-08-11T19:51:58;28.60;1.00
26053;DHT22;13826;51.186;4.450;2022-08-11T19:54:43;28.60;1.00
26053;DHT22;13826;51.186;4.450;2022-08-11T19:57:28;28.60;1.00
26053;DHT22;13826;51.186;4.450;2022-08-11T20:00:16;28.50;1.00
26053;DHT22;13826;51.186;4.450;2022-08-11T20:03:04;28.60;1.00
26053;DHT22;13826;51.186;4.450;2022-08-11T20:05:49;28.50;1.00
26053;DHT22;13826;51.186;4.450;2022-08-11T20:08:37;28.60;1.00
26053;DHT22;13826;51.186;4.450;2022-08-11T20:11:23;28.40;1.00
26053;DHT22;13826;51.186;4.450;2022-08-11T20:14:09;28.20;1.00
26053;DHT22;13826;51.186;4.450;2022-08-11T20:16:54;28.00;1.00
26053;DHT22;13826;51.186;4.450;2022-08-11T20:19:40;27.80;1.00
26053;DHT22;13826;51.186;4.450;2022-08-11T20:22:27;27.80;1.00
26053;DHT22;13826;51.186;4.450;2022-08-11T20:25:13;27.80;1.00
26053;DHT22;13826;51.186;4.450;2022-08-11T20:27:57;27.70;1.00
26053;DHT22;13826;51.186;4.450;2022-08-11T20:30:45;27.60;1.00
26053;DHT22;13826;51.186;4.450;2022-08-11T20:33:32;27.60;1.00
26053;DHT22;13826;51.186;4.450;2022-08-11T20:36:16;27.70;1.00
26053;DHT22;13826;51.186;4.450;2022-08-11T20:39:01;27.60;1.00
26053;DHT22;13826;51.186;4.450;2022-08-11T20:41:47;27.60;1.00
26053;DHT22;13826;51.186;4.450;2022-08-11T20:44:35;27.60;1.00
26053;DHT22;13826;51.186;4.450;2022-08-11T20:47:19;27.50;1.00